sensor_id;sensor_type;location;lat;lon;timestamp;P1;durP1;ratioP1;P2;durP2;ratioP2
21036;SDS011;10677;50.942;4.028;2023-04-01T00:00:30;5.75;;;1.80;;
21036;SDS011;10677;50.942;4.028;2023-04-01T00:02:56;8.20;;;1.80;;
21036;SDS011;10677;50.942;4.028;2023-04-01T00:05:22;8.40;;;1.75;;
21036;SDS011;10677;50.942;4.028;2023-04-01T00:07:49;9.70;;;1.85;;
21036;SDS011;10677;50.942;4.028;2023-04-01T00:10:16;8.23;;;2.15;;
21036;SDS011;10677;50.942;4.028;2023-04-01T00:12:42;9.32;;;2.13;;
21036;SDS011;10677;50.942;4.028;2023-04-01T00:15:08;8.35;;;2.00;;
21036;SDS011;10677;50.942;4.028;2023-04-01T00:17:36;11.85;;;3.08;;
21036;SDS011;10677;50.942;4.028;2023-04-01T00:20:02;7.85;;;2.45;;
21036;SDS011;10677;50.942;4.028;2023-04-01T00:22:29;9.70;;;2.50;;
21036;SDS011;10677;50.942;4.028;2023-04-01T00:24:54;8.60;;;2.30;;
21036;SDS011;10677;50.942;4.028;2023-04-01T00:27:20;6.20;;;2.30;;
21036;SDS011;10677;50.942;4.028;2023-04-01T00:29:46;8.60;;;3.30;;
21036;SDS011;10677;50.942;4.028;2023-04-01T00:32:12;9.07;;;2.78;;
21036;SDS011;10677;50.942;4.028;2023-04-01T00:34:39;10.00;;;3.13;;
21036;SDS011;10677;50.942;4.028;2023-04-01T00:37:05;7.07;;;3.35;;
21036;SDS011;10677;50.942;4.028;2023-04-01T00:39:31;11.43;;;3.40;;
21036;SDS011;10677;50.942;4.028;2023-04-01T00:41:58;8.20;;;3.72;;
21036;SDS011;10677;50.942;4.028;2023-04-01T00:44:29;10.02;;;3.85;;
21036;SDS011;10677;50.942;4.028;2023-04-01T00:46:57;9.35;;;3.47;;
21036;SDS011;10677;50.942;4.028;2023-04-01T00:49:29;10.80;;;3.72;;
21036;SDS011;10677;50.942;4.028;2023-04-01T00:51:58;8.32;;;4.30;;
21036;SDS011;10677;50.942;4.028;2023-04-01T00:54:27;11.10;;;4.75;;
21036;SDS011;10677;50.942;4.028;2023-04-01T00:59:52;9.88;;;4.18;;
21036;SDS011;10677;50.942;4.028;2023-04-01T01:02:19;9.15;;;4.05;;
21036;SDS011;10677;50.942;4.028;2023-04-01T01:04:46;8.18;;;4.18;;
21036;SDS011;10677;50.942;4.028;2023-04-01T01:07:14;15.43;;;4.15;;
21036;SDS011;10677;50.942;4.028;2023-04-01T01:10:23;10.70;;;4.70;;
21036;SDS011;10677;50.942;4.028;2023-04-01T01:18:44;8.63;;;4.85;;
21036;SDS011;10677;50.942;4.028;2023-04-01T01:27:22;13.65;;;4.70;;
21036;SDS011;10677;50.942;4.028;2023-04-01T01:33:08;11.88;;;4.95;;
21036;SDS011;10677;50.942;4.028;2023-04-01T01:35:54;10.70;;;4.30;;
21036;SDS011;10677;50.942;4.028;2023-04-01T01:38:24;12.05;;;4.38;;
21036;SDS011;10677;50.942;4.028;2023-04-01T01:40:53;11.63;;;3.92;;
21036;SDS011;10677;50.942;4.028;2023-04-01T01:43:24;12.07;;;4.50;;
21036;SDS011;10677;50.942;4.028;2023-04-01T01:45:53;10.75;;;3.08;;
21036;SDS011;10677;50.942;4.028;2023-04-01T01:48:20;12.90;;;3.65;;
21036;SDS011;10677;50.942;4.028;2023-04-01T01:50:48;7.35;;;3.33;;
21036;SDS011;10677;50.942;4.028;2023-04-01T01:53:15;10.93;;;3.60;;
21036;SDS011;10677;50.942;4.028;2023-04-01T01:55:42;9.30;;;3.83;;
21036;SDS011;10677;50.942;4.028;2023-04-01T02:00:41;12.05;;;4.50;;
21036;SDS011;10677;50.942;4.028;2023-04-01T02:03:12;14.25;;;3.83;;
21036;SDS011;10677;50.942;4.028;2023-04-01T02:05:39;9.55;;;3.53;;
21036;SDS011;10677;50.942;4.028;2023-04-01T02:08:16;10.55;;;3.60;;
21036;SDS011;10677;50.942;4.028;2023-04-01T02:10:49;10.85;;;3.45;;
21036;SDS011;10677;50.942;4.028;2023-04-01T02:13:26;11.95;;;3.28;;
21036;SDS011;10677;50.942;4.028;2023-04-01T02:16:34;10.52;;;3.00;;
21036;SDS011;10677;50.942;4.028;2023-04-01T02:19:01;7.50;;;2.40;;
21036;SDS011;10677;50.942;4.028;2023-04-01T02:21:32;12.02;;;2.88;;
21036;SDS011;10677;50.942;4.028;2023-04-01T02:23:59;10.77;;;2.85;;
21036;SDS011;10677;50.942;4.028;2023-04-01T02:26:28;9.80;;;3.08;;
21036;SDS011;10677;50.942;4.028;2023-04-01T02:28:54;12.57;;;3.65;;
21036;SDS011;10677;50.942;4.028;2023-04-01T02:31:21;9.18;;;3.95;;
21036;SDS011;10677;50.942;4.028;2023-04-01T02:33:48;12.48;;;3.60;;
21036;SDS011;10677;50.942;4.028;2023-04-01T02:36:14;10.15;;;4.18;;
21036;SDS011;10677;50.942;4.028;2023-04-01T02:38:43;13.60;;;3.67;;
21036;SDS011;10677;50.942;4.028;2023-04-01T02:41:10;12.30;;;4.72;;
21036;SDS011;10677;50.942;4.028;2023-04-01T02:43:36;15.50;;;5.03;;
21036;SDS011;10677;50.942;4.028;2023-04-01T02:46:02;20.92;;;5.38;;
21036;SDS011;10677;50.942;4.028;2023-04-01T02:48:28;16.33;;;5.95;;
21036;SDS011;10677;50.942;4.028;2023-04-01T02:50:54;14.57;;;5.60;;
21036;SDS011;10677;50.942;4.028;2023-04-01T02:53:21;17.15;;;5.70;;
21036;SDS011;10677;50.942;4.028;2023-04-01T02:55:46;15.25;;;5.88;;
21036;SDS011;10677;50.942;4.028;2023-04-01T02:58:15;18.15;;;7.35;;
21036;SDS011;10677;50.942;4.028;2023-04-01T03:00:41;13.45;;;5.03;;
21036;SDS011;10677;50.942;4.028;2023-04-01T03:03:07;19.38;;;6.00;;
21036;SDS011;10677;50.942;4.028;2023-04-01T03:05:33;20.27;;;7.20;;
21036;SDS011;10677;50.942;4.028;2023-04-01T03:07:59;19.52;;;7.25;;
21036;SDS011;10677;50.942;4.028;2023-04-01T03:10:25;15.70;;;6.75;;
21036;SDS011;10677;50.942;4.028;2023-04-01T03:12:50;20.42;;;6.65;;
21036;SDS011;10677;50.942;4.028;2023-04-01T03:15:16;17.25;;;5.88;;
21036;SDS011;10677;50.942;4.028;2023-04-01T03:17:42;15.23;;;6.13;;
21036;SDS011;10677;50.942;4.028;2023-04-01T03:20:08;14.10;;;5.90;;
21036;SDS011;10677;50.942;4.028;2023-04-01T03:22:35;15.52;;;5.85;;
21036;SDS011;10677;50.942;4.028;2023-04-01T03:25:02;18.67;;;6.22;;
21036;SDS011;10677;50.942;4.028;2023-04-01T03:27:29;13.98;;;5.97;;
21036;SDS011;10677;50.942;4.028;2023-04-01T03:29:54;13.85;;;5.72;;
21036;SDS011;10677;50.942;4.028;2023-04-01T03:32:20;16.10;;;5.25;;
21036;SDS011;10677;50.942;4.028;2023-04-01T03:34:46;15.68;;;7.03;;
21036;SDS011;10677;50.942;4.028;2023-04-01T03:37:12;15.63;;;5.90;;
21036;SDS011;10677;50.942;4.028;2023-04-01T03:39:37;13.27;;;5.28;;
21036;SDS011;10677;50.942;4.028;2023-04-01T03:42:03;15.07;;;5.78;;
21036;SDS011;10677;50.942;4.028;2023-04-01T03:44:32;20.00;;;6.00;;
21036;SDS011;10677;50.942;4.028;2023-04-01T03:46:59;18.15;;;5.35;;
21036;SDS011;10677;50.942;4.028;2023-04-01T03:49:25;13.68;;;4.90;;
21036;SDS011;10677;50.942;4.028;2023-04-01T03:51:51;17.80;;;5.57;;
21036;SDS011;10677;50.942;4.028;2023-04-01T03:54:17;15.10;;;5.05;;
21036;SDS011;10677;50.942;4.028;2023-04-01T03:56:45;13.32;;;5.40;;
21036;SDS011;10677;50.942;4.028;2023-04-01T03:59:10;15.20;;;5.90;;
21036;SDS011;10677;50.942;4.028;2023-04-01T04:01:36;14.32;;;5.32;;
21036;SDS011;10677;50.942;4.028;2023-04-01T04:04:02;9.20;;;4.97;;
21036;SDS011;10677;50.942;4.028;2023-04-01T04:06:28;8.82;;;4.63;;
21036;SDS011;10677;50.942;4.028;2023-04-01T04:08:54;11.43;;;4.88;;
21036;SDS011;10677;50.942;4.028;2023-04-01T04:11:20;9.80;;;3.92;;
21036;SDS011;10677;50.942;4.028;2023-04-01T04:13:47;10.98;;;4.05;;
21036;SDS011;10677;50.942;4.028;2023-04-01T04:16:13;7.95;;;3.30;;
21036;SDS011;10677;50.942;4.028;2023-04-01T04:18:39;6.45;;;2.83;;
21036;SDS011;10677;50.942;4.028;2023-04-01T04:21:05;5.97;;;2.92;;
21036;SDS011;10677;50.942;4.028;2023-04-01T04:23:32;7.00;;;3.13;;
21036;SDS011;10677;50.942;4.028;2023-04-01T04:26:16;7.35;;;3.85;;
21036;SDS011;10677;50.942;4.028;2023-04-01T04:28:42;6.95;;;3.33;;
21036;SDS011;10677;50.942;4.028;2023-04-01T04:31:08;7.35;;;3.85;;
21036;SDS011;10677;50.942;4.028;2023-04-01T04:33:34;6.55;;;3.33;;
21036;SDS011;10677;50.942;4.028;2023-04-01T04:36:00;7.57;;;3.72;;
21036;SDS011;10677;50.942;4.028;2023-04-01T04:38:26;5.63;;;3.25;;
21036;SDS011;10677;50.942;4.028;2023-04-01T04:40:52;5.43;;;2.75;;
21036;SDS011;10677;50.942;4.028;2023-04-01T04:43:18;4.10;;;2.20;;
21036;SDS011;10677;50.942;4.028;2023-04-01T04:45:45;6.47;;;2.90;;
21036;SDS011;10677;50.942;4.028;2023-04-01T04:48:11;5.25;;;2.85;;
21036;SDS011;10677;50.942;4.028;2023-04-01T04:50:41;4.68;;;2.40;;
21036;SDS011;10677;50.942;4.028;2023-04-01T04:53:14;5.03;;;2.90;;
21036;SDS011;10677;50.942;4.028;2023-04-01T04:55:44;6.88;;;3.40;;
21036;SDS011;10677;50.942;4.028;2023-04-01T04:58:10;7.75;;;3.75;;
21036;SDS011;10677;50.942;4.028;2023-04-01T05:00:36;7.13;;;3.60;;
21036;SDS011;10677;50.942;4.028;2023-04-01T05:03:02;7.45;;;4.10;;
21036;SDS011;10677;50.942;4.028;2023-04-01T05:05:27;12.40;;;4.03;;
21036;SDS011;10677;50.942;4.028;2023-04-01T05:07:53;11.13;;;5.03;;
21036;SDS011;10677;50.942;4.028;2023-04-01T05:10:18;12.10;;;5.20;;
21036;SDS011;10677;50.942;4.028;2023-04-01T05:12:45;10.57;;;5.00;;
21036;SDS011;10677;50.942;4.028;2023-04-01T05:15:11;12.82;;;5.88;;
21036;SDS011;10677;50.942;4.028;2023-04-01T05:17:37;15.93;;;7.07;;
21036;SDS011;10677;50.942;4.028;2023-04-01T05:20:03;14.05;;;6.22;;
21036;SDS011;10677;50.942;4.028;2023-04-01T05:22:29;10.75;;;6.15;;
21036;SDS011;10677;50.942;4.028;2023-04-01T05:24:54;13.18;;;6.43;;
21036;SDS011;10677;50.942;4.028;2023-04-01T05:27:20;13.70;;;6.82;;
21036;SDS011;10677;50.942;4.028;2023-04-01T05:29:46;16.95;;;6.80;;
21036;SDS011;10677;50.942;4.028;2023-04-01T05:32:12;17.75;;;6.45;;
21036;SDS011;10677;50.942;4.028;2023-04-01T05:34:38;14.57;;;6.97;;
21036;SDS011;10677;50.942;4.028;2023-04-01T05:37:03;16.13;;;7.22;;
21036;SDS011;10677;50.942;4.028;2023-04-01T05:39:29;16.75;;;7.15;;
21036;SDS011;10677;50.942;4.028;2023-04-01T05:41:55;18.77;;;7.68;;
21036;SDS011;10677;50.942;4.028;2023-04-01T05:44:20;14.63;;;6.97;;
21036;SDS011;10677;50.942;4.028;2023-04-01T05:46:46;13.30;;;6.35;;
21036;SDS011;10677;50.942;4.028;2023-04-01T05:49:12;17.95;;;7.57;;
21036;SDS011;10677;50.942;4.028;2023-04-01T05:51:37;15.73;;;6.97;;
21036;SDS011;10677;50.942;4.028;2023-04-01T05:54:04;20.85;;;8.88;;
21036;SDS011;10677;50.942;4.028;2023-04-01T05:56:31;14.05;;;7.60;;
21036;SDS011;10677;50.942;4.028;2023-04-01T05:58:56;17.58;;;7.57;;
21036;SDS011;10677;50.942;4.028;2023-04-01T06:01:22;13.07;;;7.85;;
21036;SDS011;10677;50.942;4.028;2023-04-01T06:03:48;14.98;;;8.27;;
21036;SDS011;10677;50.942;4.028;2023-04-01T06:06:24;20.70;;;10.02;;
21036;SDS011;10677;50.942;4.028;2023-04-01T06:08:52;15.00;;;8.57;;
21036;SDS011;10677;50.942;4.028;2023-04-01T06:18:59;13.45;;;6.95;;
21036;SDS011;10677;50.942;4.028;2023-04-01T06:24:38;14.73;;;6.93;;
21036;SDS011;10677;50.942;4.028;2023-04-01T06:27:19;18.10;;;7.65;;
21036;SDS011;10677;50.942;4.028;2023-04-01T06:32:52;13.38;;;7.05;;
21036;SDS011;10677;50.942;4.028;2023-04-01T06:35:27;14.27;;;6.75;;
21036;SDS011;10677;50.942;4.028;2023-04-01T06:41:05;11.25;;;6.43;;
21036;SDS011;10677;50.942;4.028;2023-04-01T06:46:48;13.00;;;5.90;;
21036;SDS011;10677;50.942;4.028;2023-04-01T06:51:57;6.38;;;3.47;;
21036;SDS011;10677;50.942;4.028;2023-04-01T06:54:32;6.95;;;3.40;;
21036;SDS011;10677;50.942;4.028;2023-04-01T06:57:38;5.18;;;2.10;;
21036;SDS011;10677;50.942;4.028;2023-04-01T07:00:18;6.45;;;2.22;;
21036;SDS011;10677;50.942;4.028;2023-04-01T07:02:59;5.95;;;2.17;;
21036;SDS011;10677;50.942;4.028;2023-04-01T07:05:47;3.72;;;1.45;;
21036;SDS011;10677;50.942;4.028;2023-04-01T07:08:23;2.80;;;1.25;;
21036;SDS011;10677;50.942;4.028;2023-04-01T07:10:54;5.05;;;1.17;;
21036;SDS011;10677;50.942;4.028;2023-04-01T07:13:27;3.20;;;1.05;;
21036;SDS011;10677;50.942;4.028;2023-04-01T07:18:52;3.03;;;1.00;;
21036;SDS011;10677;50.942;4.028;2023-04-01T07:21:29;2.85;;;1.30;;
21036;SDS011;10677;50.942;4.028;2023-04-01T07:23:57;2.60;;;1.48;;
21036;SDS011;10677;50.942;4.028;2023-04-01T07:26:26;3.67;;;1.70;;
21036;SDS011;10677;50.942;4.028;2023-04-01T07:28:52;4.15;;;1.92;;
21036;SDS011;10677;50.942;4.028;2023-04-01T07:31:29;4.72;;;1.90;;
21036;SDS011;10677;50.942;4.028;2023-04-01T07:36:59;6.30;;;1.92;;
21036;SDS011;10677;50.942;4.028;2023-04-01T07:47:40;3.40;;;1.73;;
21036;SDS011;10677;50.942;4.028;2023-04-01T07:50:28;3.10;;;1.50;;
21036;SDS011;10677;50.942;4.028;2023-04-01T07:53:12;3.67;;;1.83;;
21036;SDS011;10677;50.942;4.028;2023-04-01T07:59:04;3.45;;;1.60;;
21036;SDS011;10677;50.942;4.028;2023-04-01T08:04:33;6.30;;;1.90;;
21036;SDS011;10677;50.942;4.028;2023-04-01T08:07:25;2.83;;;1.50;;
21036;SDS011;10677;50.942;4.028;2023-04-01T08:15:28;3.63;;;1.48;;
21036;SDS011;10677;50.942;4.028;2023-04-01T08:18:06;4.65;;;1.73;;
21036;SDS011;10677;50.942;4.028;2023-04-01T08:23:17;4.03;;;1.58;;
21036;SDS011;10677;50.942;4.028;2023-04-01T08:25:54;4.32;;;1.83;;
21036;SDS011;10677;50.942;4.028;2023-04-01T08:31:16;3.53;;;1.88;;
21036;SDS011;10677;50.942;4.028;2023-04-01T08:33:47;2.83;;;1.83;;
21036;SDS011;10677;50.942;4.028;2023-04-01T08:39:24;2.92;;;1.83;;
21036;SDS011;10677;50.942;4.028;2023-04-01T09:13:13;4.25;;;2.22;;
21036;SDS011;10677;50.942;4.028;2023-04-01T09:41:27;5.57;;;2.22;;
21036;SDS011;10677;50.942;4.028;2023-04-01T09:44:02;4.35;;;1.92;;
21036;SDS011;10677;50.942;4.028;2023-04-01T09:46:36;5.82;;;1.98;;
21036;SDS011;10677;50.942;4.028;2023-04-01T09:52:18;6.53;;;2.60;;
21036;SDS011;10677;50.942;4.028;2023-04-01T10:56:34;3.95;;;0.90;;
21036;SDS011;10677;50.942;4.028;2023-04-01T11:02:17;4.38;;;1.15;;
21036;SDS011;10677;50.942;4.028;2023-04-01T11:05:22;2.33;;;0.77;;
21036;SDS011;10677;50.942;4.028;2023-04-01T11:13:49;2.97;;;0.90;;
21036;SDS011;10677;50.942;4.028;2023-04-01T11:16:47;3.22;;;1.10;;
21036;SDS011;10677;50.942;4.028;2023-04-01T11:28:07;3.75;;;1.30;;
21036;SDS011;10677;50.942;4.028;2023-04-01T11:31:02;4.47;;;1.50;;
21036;SDS011;10677;50.942;4.028;2023-04-01T11:50:25;3.35;;;1.23;;
21036;SDS011;10677;50.942;4.028;2023-04-01T12:01:15;4.45;;;1.50;;
21036;SDS011;10677;50.942;4.028;2023-04-01T12:06:40;3.25;;;1.65;;
21036;SDS011;10677;50.942;4.028;2023-04-01T12:09:25;4.53;;;1.85;;
21036;SDS011;10677;50.942;4.028;2023-04-01T12:12:18;4.03;;;1.30;;
21036;SDS011;10677;50.942;4.028;2023-04-01T12:18:03;3.88;;;1.60;;
21036;SDS011;10677;50.942;4.028;2023-04-01T12:26:32;1.50;;;0.90;;
21036;SDS011;10677;50.942;4.028;2023-04-01T12:48:54;2.60;;;1.10;;
21036;SDS011;10677;50.942;4.028;2023-04-01T12:54:30;5.15;;;1.20;;
21036;SDS011;10677;50.942;4.028;2023-04-01T13:00:25;4.03;;;1.52;;
21036;SDS011;10677;50.942;4.028;2023-04-01T13:06:09;4.40;;;1.48;;
21036;SDS011;10677;50.942;4.028;2023-04-01T13:25:59;5.60;;;1.90;;
21036;SDS011;10677;50.942;4.028;2023-04-01T13:28:37;6.68;;;2.20;;
21036;SDS011;10677;50.942;4.028;2023-04-01T13:31:08;3.78;;;1.83;;
21036;SDS011;10677;50.942;4.028;2023-04-01T13:42:47;4.22;;;1.58;;
21036;SDS011;10677;50.942;4.028;2023-04-01T13:45:21;5.93;;;2.00;;
21036;SDS011;10677;50.942;4.028;2023-04-01T14:02:06;4.90;;;1.38;;
21036;SDS011;10677;50.942;4.028;2023-04-01T14:08:08;4.25;;;1.50;;
21036;SDS011;10677;50.942;4.028;2023-04-01T14:19:17;3.53;;;1.38;;
21036;SDS011;10677;50.942;4.028;2023-04-01T14:22:11;3.75;;;1.20;;
21036;SDS011;10677;50.942;4.028;2023-04-01T14:25:10;2.25;;;1.05;;
21036;SDS011;10677;50.942;4.028;2023-04-01T14:49:44;3.58;;;1.05;;
21036;SDS011;10677;50.942;4.028;2023-04-01T14:52:30;2.20;;;1.02;;
21036;SDS011;10677;50.942;4.028;2023-04-01T14:55:01;2.05;;;1.08;;
21036;SDS011;10677;50.942;4.028;2023-04-01T14:57:42;2.60;;;0.70;;
21036;SDS011;10677;50.942;4.028;2023-04-01T15:03:40;3.90;;;0.90;;
21036;SDS011;10677;50.942;4.028;2023-04-01T15:14:39;3.03;;;0.98;;
21036;SDS011;10677;50.942;4.028;2023-04-01T15:20:01;2.47;;;1.08;;
21036;SDS011;10677;50.942;4.028;2023-04-01T15:33:46;2.45;;;0.88;;
21036;SDS011;10677;50.942;4.028;2023-04-01T15:36:35;2.92;;;1.20;;
21036;SDS011;10677;50.942;4.028;2023-04-01T15:49:53;3.28;;;1.30;;
21036;SDS011;10677;50.942;4.028;2023-04-01T15:53:01;4.63;;;1.20;;
21036;SDS011;10677;50.942;4.028;2023-04-01T15:58:41;3.88;;;1.55;;
21036;SDS011;10677;50.942;4.028;2023-04-01T16:09:06;4.18;;;1.35;;
21036;SDS011;10677;50.942;4.028;2023-04-01T16:11:56;4.78;;;1.70;;
21036;SDS011;10677;50.942;4.028;2023-04-01T16:17:20;3.38;;;1.42;;
21036;SDS011;10677;50.942;4.028;2023-04-01T16:22:32;5.03;;;1.42;;
21036;SDS011;10677;50.942;4.028;2023-04-01T16:30:26;2.33;;;1.27;;
21036;SDS011;10677;50.942;4.028;2023-04-01T16:33:12;5.57;;;1.70;;
21036;SDS011;10677;50.942;4.028;2023-04-01T16:41:32;3.78;;;1.67;;
21036;SDS011;10677;50.942;4.028;2023-04-01T16:46:56;2.78;;;1.65;;
21036;SDS011;10677;50.942;4.028;2023-04-01T16:49:31;5.07;;;1.60;;
21036;SDS011;10677;50.942;4.028;2023-04-01T16:52:32;3.75;;;1.50;;
21036;SDS011;10677;50.942;4.028;2023-04-01T16:55:18;3.10;;;1.45;;
21036;SDS011;10677;50.942;4.028;2023-04-01T16:57:52;4.10;;;2.08;;
21036;SDS011;10677;50.942;4.028;2023-04-01T17:00:24;5.18;;;2.50;;
21036;SDS011;10677;50.942;4.028;2023-04-01T17:03:04;5.78;;;2.42;;
21036;SDS011;10677;50.942;4.028;2023-04-01T17:06:00;4.55;;;2.80;;
21036;SDS011;10677;50.942;4.028;2023-04-01T17:08:41;7.25;;;2.53;;
21036;SDS011;10677;50.942;4.028;2023-04-01T17:11:19;5.70;;;2.50;;
21036;SDS011;10677;50.942;4.028;2023-04-01T17:14:07;12.27;;;4.05;;
21036;SDS011;10677;50.942;4.028;2023-04-01T17:19:34;3.47;;;1.55;;
21036;SDS011;10677;50.942;4.028;2023-04-01T17:28:16;4.93;;;3.10;;
21036;SDS011;10677;50.942;4.028;2023-04-01T17:41:31;4.45;;;2.47;;
21036;SDS011;10677;50.942;4.028;2023-04-01T17:44:24;6.28;;;3.08;;
21036;SDS011;10677;50.942;4.028;2023-04-01T17:52:33;6.53;;;3.15;;
21036;SDS011;10677;50.942;4.028;2023-04-01T18:12:04;7.95;;;3.33;;
21036;SDS011;10677;50.942;4.028;2023-04-01T18:14:55;4.50;;;2.70;;
21036;SDS011;10677;50.942;4.028;2023-04-01T18:17:25;8.40;;;3.15;;
21036;SDS011;10677;50.942;4.028;2023-04-01T18:25:28;9.68;;;4.20;;
21036;SDS011;10677;50.942;4.028;2023-04-01T18:30:39;9.85;;;5.35;;
21036;SDS011;10677;50.942;4.028;2023-04-01T18:36:08;8.55;;;4.78;;
21036;SDS011;10677;50.942;4.028;2023-04-01T18:38:36;8.23;;;4.93;;
21036;SDS011;10677;50.942;4.028;2023-04-01T18:41:14;8.00;;;5.35;;
21036;SDS011;10677;50.942;4.028;2023-04-01T18:47:03;14.35;;;6.18;;
21036;SDS011;10677;50.942;4.028;2023-04-01T18:49:59;14.30;;;6.68;;
21036;SDS011;10677;50.942;4.028;2023-04-01T18:53:39;15.88;;;7.70;;
21036;SDS011;10677;50.942;4.028;2023-04-01T18:55:54;15.15;;;8.00;;
21036;SDS011;10677;50.942;4.028;2023-04-01T18:58:26;19.90;;;9.13;;
21036;SDS011;10677;50.942;4.028;2023-04-01T19:04:33;20.67;;;10.05;;
21036;SDS011;10677;50.942;4.028;2023-04-01T19:09:51;22.80;;;11.80;;
21036;SDS011;10677;50.942;4.028;2023-04-01T19:12:26;24.50;;;12.20;;
21036;SDS011;10677;50.942;4.028;2023-04-01T19:20:37;25.60;;;12.50;;
21036;SDS011;10677;50.942;4.028;2023-04-01T19:29:04;29.45;;;14.23;;
21036;SDS011;10677;50.942;4.028;2023-04-01T19:32:10;28.55;;;14.60;;
21036;SDS011;10677;50.942;4.028;2023-04-01T19:37:51;36.10;;;14.38;;
21036;SDS011;10677;50.942;4.028;2023-04-01T19:40:35;34.08;;;13.80;;
21036;SDS011;10677;50.942;4.028;2023-04-01T19:51:37;33.63;;;16.52;;
21036;SDS011;10677;50.942;4.028;2023-04-01T19:59:44;32.50;;;15.82;;
21036;SDS011;10677;50.942;4.028;2023-04-01T20:02:39;37.28;;;15.73;;
21036;SDS011;10677;50.942;4.028;2023-04-01T20:05:25;37.28;;;15.70;;
21036;SDS011;10677;50.942;4.028;2023-04-01T20:16:18;37.50;;;15.85;;
21036;SDS011;10677;50.942;4.028;2023-04-01T20:18:59;45.05;;;17.17;;
21036;SDS011;10677;50.942;4.028;2023-04-01T20:21:45;42.03;;;17.15;;
21036;SDS011;10677;50.942;4.028;2023-04-01T20:24:17;37.65;;;16.95;;
21036;SDS011;10677;50.942;4.028;2023-04-01T20:26:53;38.22;;;17.42;;
21036;SDS011;10677;50.942;4.028;2023-04-01T20:29:37;43.03;;;18.13;;
21036;SDS011;10677;50.942;4.028;2023-04-01T20:32:23;40.90;;;16.85;;
21036;SDS011;10677;50.942;4.028;2023-04-01T20:38:07;39.47;;;18.02;;
21036;SDS011;10677;50.942;4.028;2023-04-01T20:40:52;50.83;;;18.67;;
21036;SDS011;10677;50.942;4.028;2023-04-01T20:52:31;52.70;;;21.58;;
21036;SDS011;10677;50.942;4.028;2023-04-01T20:54:41;57.80;;;22.05;;
21036;SDS011;10677;50.942;4.028;2023-04-01T21:16:33;55.67;;;24.05;;
21036;SDS011;10677;50.942;4.028;2023-04-01T21:41:55;57.17;;;25.10;;
21036;SDS011;10677;50.942;4.028;2023-04-01T22:06:19;60.88;;;25.73;;
21036;SDS011;10677;50.942;4.028;2023-04-01T22:17:00;54.97;;;25.13;;
21036;SDS011;10677;50.942;4.028;2023-04-01T22:19:46;55.85;;;25.35;;
21036;SDS011;10677;50.942;4.028;2023-04-01T22:32:52;46.80;;;23.85;;
21036;SDS011;10677;50.942;4.028;2023-04-01T22:43:51;59.80;;;27.58;;
21036;SDS011;10677;50.942;4.028;2023-04-01T22:48:45;55.13;;;25.90;;
21036;SDS011;10677;50.942;4.028;2023-04-01T22:53:59;57.20;;;26.35;;
21036;SDS011;10677;50.942;4.028;2023-04-01T22:56:38;49.50;;;24.50;;
21036;SDS011;10677;50.942;4.028;2023-04-01T23:04:29;50.65;;;22.95;;
21036;SDS011;10677;50.942;4.028;2023-04-01T23:06:59;42.00;;;22.77;;
21036;SDS011;10677;50.942;4.028;2023-04-01T23:09:33;43.58;;;23.90;;
21036;SDS011;10677;50.942;4.028;2023-04-01T23:12:04;46.38;;;24.27;;
21036;SDS011;10677;50.942;4.028;2023-04-01T23:14:39;50.45;;;24.10;;
21036;SDS011;10677;50.942;4.028;2023-04-01T23:17:20;42.85;;;22.88;;
21036;SDS011;10677;50.942;4.028;2023-04-01T23:20:56;46.20;;;24.55;;
21036;SDS011;10677;50.942;4.028;2023-04-01T23:22:54;47.95;;;23.50;;
21036;SDS011;10677;50.942;4.028;2023-04-01T23:33:10;44.38;;;24.40;;
21036;SDS011;10677;50.942;4.028;2023-04-01T23:35:58;43.22;;;23.45;;
21036;SDS011;10677;50.942;4.028;2023-04-01T23:38:39;37.45;;;22.67;;
21036;SDS011;10677;50.942;4.028;2023-04-01T23:41:27;38.35;;;22.70;;
21036;SDS011;10677;50.942;4.028;2023-04-01T23:43:59;40.65;;;22.55;;
21036;SDS011;10677;50.942;4.028;2023-04-01T23:46:36;39.45;;;23.25;;
21036;SDS011;10677;50.942;4.028;2023-04-01T23:49:06;39.10;;;23.17;;
21036;SDS011;10677;50.942;4.028;2023-04-01T23:51:49;36.90;;;21.98;;
21036;SDS011;10677;50.942;4.028;2023-04-01T23:56:55;34.50;;;20.23;;
